Saint Francis River (Missouri), Wappapello (07039500)

StateMissouriLatestHigh (3080 cfs)
RiverSaint Francis RiverRatingObservedEstimated
Updated2020-02-25 22:00 (25 minutes ago)Flood - The river is flooding. Obstacles can be treacherous or deadly. The river should be avoided at this stage for casual trips and definitely for the inexperienced. Trips should be attempted only with protective gear and equipment.Flood(none)7958
Discharge3080 cfs (median: 1950 cfs)High - The river is high and potentially dangerous, especially for the young and / or inexperienced. Normal stream obstacles are sometimes difficult to navigate. Extended distances can be attempted, but canoe travel may not be advisable.High(none)2240
Height16.97 feetGood - Conditions are ideal for a canoe or kayak. Boats typically will drag on fewer than one-quarter of riffles, if at all, and portages are unnecessary or rare. Normal float lengths can be attempted without a problem.Good(none)676
TrendSteady (falling over 24 hours)Low - River is low but can still be floated. Some riffles are okay but most come with significant dragging and might need a portage. Float lengths should be reduced to accommodate low flow, dragging, and portages.Low(none)255
USGSExternal icon USGS Site (External icon Google Maps)Poor - River is too low to float comfortably. Most or all riffles will drag or must be portaged and some obstacles (such as slick shelf rock) cause undue problems. Avoid the river at this stage for casual paddling trips.Poor(none)40

Trending Data

Plot Image

Trips for Saint Francis River (Missouri), Wappapello (07039500)

DateStartEndDistanceConditionDischargeHeightFishingDetails

A total of 0 rows are displayed.

Condition Descriptions

Fishing Conditions

Fish Species

Notes

Classic Trip List

The classic River Trips application is still available for use. It is updated with the new system using a data retrofit. It is no longer maintained. The original River Trips application is no longer updated (as of 1 Dec 2016) but can be checked for errors or for the condition of the data before it was converted to the new system.

Gauge Data Table

ObservationHeightDischargeMaximum
Discharge
Minimum
Discharge
Mean
Discharge
P05P10P20P25P50
(Median)
P75P80P90P95
2020-02-25 22:00 16.97 3080 9010 (1951) 238 (1963) 2640 480 552 931 1060 1950 3380 4150 6160 7160
2020-02-25 21:00 16.96 3080 9010 (1951) 238 (1963) 2640 480 552 931 1060 1950 3380 4150 6160 7160
2020-02-25 20:00 16.99 3080 9010 (1951) 238 (1963) 2640 480 552 931 1060 1950 3380 4150 6160 7160
2020-02-25 19:00 16.99 3080 9010 (1951) 238 (1963) 2640 480 552 931 1060 1950 3380 4150 6160 7160
2020-02-25 18:00 17.00 3090 9010 (1951) 238 (1963) 2640 480 552 931 1060 1950 3380 4150 6160 7160
2020-02-25 17:00 17.02 3090 9010 (1951) 238 (1963) 2640 480 552 931 1060 1950 3380 4150 6160 7160
2020-02-25 16:00 17.02 3090 9010 (1951) 238 (1963) 2640 480 552 931 1060 1950 3380 4150 6160 7160
2020-02-25 15:00 17.05 3100 9010 (1951) 238 (1963) 2640 480 552 931 1060 1950 3380 4150 6160 7160
2020-02-25 14:00 17.05 3100 9010 (1951) 238 (1963) 2640 480 552 931 1060 1950 3380 4150 6160 7160
2020-02-25 13:00 17.06 3100 9010 (1951) 238 (1963) 2640 480 552 931 1060 1950 3380 4150 6160 7160
2020-02-25 12:00 17.08 3110 9010 (1951) 238 (1963) 2640 480 552 931 1060 1950 3380 4150 6160 7160
2020-02-25 11:00 17.09 3110 9010 (1951) 238 (1963) 2640 480 552 931 1060 1950 3380 4150 6160 7160
2020-02-25 10:00 17.12 3120 9010 (1951) 238 (1963) 2640 480 552 931 1060 1950 3380 4150 6160 7160
2020-02-25 09:00 17.14 3120 9010 (1951) 238 (1963) 2640 480 552 931 1060 1950 3380 4150 6160 7160
2020-02-25 08:00 17.15 3130 9010 (1951) 238 (1963) 2640 480 552 931 1060 1950 3380 4150 6160 7160
2020-02-25 07:00 17.17 3130 9010 (1951) 238 (1963) 2640 480 552 931 1060 1950 3380 4150 6160 7160
2020-02-25 06:00 17.18 3130 9010 (1951) 238 (1963) 2640 480 552 931 1060 1950 3380 4150 6160 7160
2020-02-25 05:00 17.20 3140 9010 (1951) 238 (1963) 2640 480 552 931 1060 1950 3380 4150 6160 7160
2020-02-25 04:00 17.22 3150 9010 (1951) 238 (1963) 2640 480 552 931 1060 1950 3380 4150 6160 7160
2020-02-25 03:00 17.24 3150 9010 (1951) 238 (1963) 2640 480 552 931 1060 1950 3380 4150 6160 7160
2020-02-25 02:00 17.26 3160 9010 (1951) 238 (1963) 2640 480 552 931 1060 1950 3380 4150 6160 7160
2020-02-25 01:00 17.26 3160 9010 (1951) 238 (1963) 2640 480 552 931 1060 1950 3380 4150 6160 7160
2020-02-25 00:00 17.27 3160 9010 (1951) 238 (1963) 2640 480 552 931 1060 1950 3380 4150 6160 7160
2020-02-24 23:00 17.26 3160 9660 (1951) 238 (1963) 2580 468 565 880 1070 1870 3610 4610 6100 6400
2020-02-24 22:00 17.27 3160 9660 (1951) 238 (1963) 2580 468 565 880 1070 1870 3610 4610 6100 6400
2020-02-24 21:00 17.25 3150 9660 (1951) 238 (1963) 2580 468 565 880 1070 1870 3610 4610 6100 6400
2020-02-24 20:00 17.23 3150 9660 (1951) 238 (1963) 2580 468 565 880 1070 1870 3610 4610 6100 6400
2020-02-24 19:00 17.18 3130 9660 (1951) 238 (1963) 2580 468 565 880 1070 1870 3610 4610 6100 6400
2020-02-24 18:00 17.13 3120 9660 (1951) 238 (1963) 2580 468 565 880 1070 1870 3610 4610 6100 6400
2020-02-24 17:00 17.09 3110 9660 (1951) 238 (1963) 2580 468 565 880 1070 1870 3610 4610 6100 6400
2020-02-24 16:00 17.06 3100 9660 (1951) 238 (1963) 2580 468 565 880 1070 1870 3610 4610 6100 6400
2020-02-24 15:00 17.06 3100 9660 (1951) 238 (1963) 2580 468 565 880 1070 1870 3610 4610 6100 6400
2020-02-24 14:00 17.07 3110 9660 (1951) 238 (1963) 2580 468 565 880 1070 1870 3610 4610 6100 6400
2020-02-24 13:00 17.08 3110 9660 (1951) 238 (1963) 2580 468 565 880 1070 1870 3610 4610 6100 6400
2020-02-24 12:00 17.09 3110 9660 (1951) 238 (1963) 2580 468 565 880 1070 1870 3610 4610 6100 6400
2020-02-24 11:00 17.10 3110 9660 (1951) 238 (1963) 2580 468 565 880 1070 1870 3610 4610 6100 6400
2020-02-24 10:00 17.11 3120 9660 (1951) 238 (1963) 2580 468 565 880 1070 1870 3610 4610 6100 6400
2020-02-24 09:00 17.11 3120 9660 (1951) 238 (1963) 2580 468 565 880 1070 1870 3610 4610 6100 6400
2020-02-24 08:00 17.13 3120 9660 (1951) 238 (1963) 2580 468 565 880 1070 1870 3610 4610 6100 6400
2020-02-24 07:00 17.14 3120 9660 (1951) 238 (1963) 2580 468 565 880 1070 1870 3610 4610 6100 6400
2020-02-24 06:00 17.13 3120 9660 (1951) 238 (1963) 2580 468 565 880 1070 1870 3610 4610 6100 6400
2020-02-24 05:00 17.15 3130 9660 (1951) 238 (1963) 2580 468 565 880 1070 1870 3610 4610 6100 6400
2020-02-24 04:00 17.17 3130 9660 (1951) 238 (1963) 2580 468 565 880 1070 1870 3610 4610 6100 6400
2020-02-24 03:00 17.16 3130 9660 (1951) 238 (1963) 2580 468 565 880 1070 1870 3610 4610 6100 6400
2020-02-24 02:00 17.19 3140 9660 (1951) 238 (1963) 2580 468 565 880 1070 1870 3610 4610 6100 6400
2020-02-24 01:00 17.21 3140 9660 (1951) 238 (1963) 2580 468 565 880 1070 1870 3610 4610 6100 6400
2020-02-24 00:00 17.24 3150 9660 (1951) 238 (1963) 2580 468 565 880 1070 1870 3610 4610 6100 6400
2020-02-23 23:00 17.28 3160 9990 (1951) 220 (1977) 2470 434 584 896 1010 1960 3660 4210 5350 6550
2020-02-23 22:00 17.32 3170 9990 (1951) 220 (1977) 2470 434 584 896 1010 1960 3660 4210 5350 6550
2020-02-23 21:00 17.39 3190 9990 (1951) 220 (1977) 2470 434 584 896 1010 1960 3660 4210 5350 6550
2020-02-23 20:00 17.43 3200 9990 (1951) 220 (1977) 2470 434 584 896 1010 1960 3660 4210 5350 6550
2020-02-23 19:00 17.49 3220 9990 (1951) 220 (1977) 2470 434 584 896 1010 1960 3660 4210 5350 6550
2020-02-23 18:00 17.55 3230 9990 (1951) 220 (1977) 2470 434 584 896 1010 1960 3660 4210 5350 6550
2020-02-23 17:00 17.62 3250 9990 (1951) 220 (1977) 2470 434 584 896 1010 1960 3660 4210 5350 6550
2020-02-23 16:00 17.71 3280 9990 (1951) 220 (1977) 2470 434 584 896 1010 1960 3660 4210 5350 6550
2020-02-23 15:00 17.81 3300 9990 (1951) 220 (1977) 2470 434 584 896 1010 1960 3660 4210 5350 6550
2020-02-23 14:00 17.92 3330 9990 (1951) 220 (1977) 2470 434 584 896 1010 1960 3660 4210 5350 6550
2020-02-23 13:00 18.04 3360 9990 (1951) 220 (1977) 2470 434 584 896 1010 1960 3660 4210 5350 6550
2020-02-23 12:00 18.23 3420 9990 (1951) 220 (1977) 2470 434 584 896 1010 1960 3660 4210 5350 6550
2020-02-23 11:00 18.39 3460 9990 (1951) 220 (1977) 2470 434 584 896 1010 1960 3660 4210 5350 6550
2020-02-23 10:00 18.48 3480 9990 (1951) 220 (1977) 2470 434 584 896 1010 1960 3660 4210 5350 6550
2020-02-23 09:00 18.67 3540 9990 (1951) 220 (1977) 2470 434 584 896 1010 1960 3660 4210 5350 6550
2020-02-23 08:00 18.68 3540 9990 (1951) 220 (1977) 2470 434 584 896 1010 1960 3660 4210 5350 6550
2020-02-23 07:00 18.72 3550 9990 (1951) 220 (1977) 2470 434 584 896 1010 1960 3660 4210 5350 6550
2020-02-23 06:00 18.73 3560 9990 (1951) 220 (1977) 2470 434 584 896 1010 1960 3660 4210 5350 6550
2020-02-23 05:00 18.77 3570 9990 (1951) 220 (1977) 2470 434 584 896 1010 1960 3660 4210 5350 6550
2020-02-23 04:00 18.79 3570 9990 (1951) 220 (1977) 2470 434 584 896 1010 1960 3660 4210 5350 6550
2020-02-23 03:00 18.82 3580 9990 (1951) 220 (1977) 2470 434 584 896 1010 1960 3660 4210 5350 6550
2020-02-23 02:00 18.87 3600 9990 (1951) 220 (1977) 2470 434 584 896 1010 1960 3660 4210 5350 6550
2020-02-23 01:00 18.89 3600 9990 (1951) 220 (1977) 2470 434 584 896 1010 1960 3660 4210 5350 6550
2020-02-23 00:00 18.93 3610 9990 (1951) 220 (1977) 2470 434 584 896 1010 1960 3660 4210 5350 6550
2020-02-22 23:00 18.98 3630 9920 (1951) 220 (1977) 2420 393 574 874 1090 1830 3220 3600 5430 6490
2020-02-22 22:00 19.04 3650 9920 (1951) 220 (1977) 2420 393 574 874 1090 1830 3220 3600 5430 6490
2020-02-22 21:00 19.08 3660 9920 (1951) 220 (1977) 2420 393 574 874 1090 1830 3220 3600 5430 6490
2020-02-22 20:00 19.12 3670 9920 (1951) 220 (1977) 2420 393 574 874 1090 1830 3220 3600 5430 6490
2020-02-22 19:00 19.17 3680 9920 (1951) 220 (1977) 2420 393 574 874 1090 1830 3220 3600 5430 6490
2020-02-22 18:00 19.24 3700 9920 (1951) 220 (1977) 2420 393 574 874 1090 1830 3220 3600 5430 6490
2020-02-22 17:00 19.31 3720 9920 (1951) 220 (1977) 2420 393 574 874 1090 1830 3220 3600 5430 6490
2020-02-22 16:00 19.37 3740 9920 (1951) 220 (1977) 2420 393 574 874 1090 1830 3220 3600 5430 6490
2020-02-22 15:00 19.49 3780 9920 (1951) 220 (1977) 2420 393 574 874 1090 1830 3220 3600 5430 6490
2020-02-22 14:00 19.57 3800 9920 (1951) 220 (1977) 2420 393 574 874 1090 1830 3220 3600 5430 6490
2020-02-22 13:00 19.72 3840 9920 (1951) 220 (1977) 2420 393 574 874 1090 1830 3220 3600 5430 6490
2020-02-22 12:00 19.91 3900 9920 (1951) 220 (1977) 2420 393 574 874 1090 1830 3220 3600 5430 6490
2020-02-22 11:00 2 3930 9920 (1951) 220 (1977) 2420 393 574 874 1090 1830 3220 3600 5430 6490
2020-02-22 10:00 20.08 3950 9920 (1951) 220 (1977) 2420 393 574 874 1090 1830 3220 3600 5430 6490
2020-02-22 09:00 20.21 3990 9920 (1951) 220 (1977) 2420 393 574 874 1090 1830 3220 3600 5430 6490
2020-02-22 08:00 20.30 4020 9920 (1951) 220 (1977) 2420 393 574 874 1090 1830 3220 3600 5430 6490
2020-02-22 07:00 20.31 4020 9920 (1951) 220 (1977) 2420 393 574 874 1090 1830 3220 3600 5430 6490
2020-02-22 06:00 20.34 4030 9920 (1951) 220 (1977) 2420 393 574 874 1090 1830 3220 3600 5430 6490
2020-02-22 05:00 20.37 4040 9920 (1951) 220 (1977) 2420 393 574 874 1090 1830 3220 3600 5430 6490
2020-02-22 04:00 20.40 4050 9920 (1951) 220 (1977) 2420 393 574 874 1090 1830 3220 3600 5430 6490
2020-02-22 03:00 20.42 4050 9920 (1951) 220 (1977) 2420 393 574 874 1090 1830 3220 3600 5430 6490
2020-02-22 02:00 20.46 4070 9920 (1951) 220 (1977) 2420 393 574 874 1090 1830 3220 3600 5430 6490
2020-02-22 01:00 20.50 4080 9920 (1951) 220 (1977) 2420 393 574 874 1090 1830 3220 3600 5430 6490
2020-02-22 00:00 20.54 4090 9920 (1951) 220 (1977) 2420 393 574 874 1090 1830 3220 3600 5430 6490
2020-02-21 23:00 20.60 4110 9630 (1951) 275 (1963) 2410 361 582 803 1060 1740 3300 3540 5520 7170
2020-02-21 22:00 20.64 4120 9630 (1951) 275 (1963) 2410 361 582 803 1060 1740 3300 3540 5520 7170
2020-02-21 21:00 20.70 4140 9630 (1951) 275 (1963) 2410 361 582 803 1060 1740 3300 3540 5520 7170
2020-02-21 20:00 20.75 4150 9630 (1951) 275 (1963) 2410 361 582 803 1060 1740 3300 3540 5520 7170
2020-02-21 19:00 20.78 4160 9630 (1951) 275 (1963) 2410 361 582 803 1060 1740 3300 3540 5520 7170
2020-02-21 18:00 20.85 4180 9630 (1951) 275 (1963) 2410 361 582 803 1060 1740 3300 3540 5520 7170
2020-02-21 17:00 20.93 4210 9630 (1951) 275 (1963) 2410 361 582 803 1060 1740 3300 3540 5520 7170
2020-02-21 16:00 20.98 4220 9630 (1951) 275 (1963) 2410 361 582 803 1060 1740 3300 3540 5520 7170
2020-02-21 15:00 21.10 4260 9630 (1951) 275 (1963) 2410 361 582 803 1060 1740 3300 3540 5520 7170
2020-02-21 14:00 21.22 4300 9630 (1951) 275 (1963) 2410 361 582 803 1060 1740 3300 3540 5520 7170
2020-02-21 13:00 21.33 4330 9630 (1951) 275 (1963) 2410 361 582 803 1060 1740 3300 3540 5520 7170
2020-02-21 12:00 21.43 4360 9630 (1951) 275 (1963) 2410 361 582 803 1060 1740 3300 3540 5520 7170
2020-02-21 11:00 21.59 4410 9630 (1951) 275 (1963) 2410 361 582 803 1060 1740 3300 3540 5520 7170
2020-02-21 10:00 21.63 4420 9630 (1951) 275 (1963) 2410 361 582 803 1060 1740 3300 3540 5520 7170
2020-02-21 09:00 21.65 4430 9630 (1951) 275 (1963) 2410 361 582 803 1060 1740 3300 3540 5520 7170
2020-02-21 08:00 21.67 4440 9630 (1951) 275 (1963) 2410 361 582 803 1060 1740 3300 3540 5520 7170
2020-02-21 07:00 21.69 4440 9630 (1951) 275 (1963) 2410 361 582 803 1060 1740 3300 3540 5520 7170
2020-02-21 06:00 21.70 4450 9630 (1951) 275 (1963) 2410 361 582 803 1060 1740 3300 3540 5520 7170
2020-02-21 05:00 21.71 4450 9630 (1951) 275 (1963) 2410 361 582 803 1060 1740 3300 3540 5520 7170
2020-02-21 04:00 21.71 4450 9630 (1951) 275 (1963) 2410 361 582 803 1060 1740 3300 3540 5520 7170
2020-02-21 03:00 21.77 4470 9630 (1951) 275 (1963) 2410 361 582 803 1060 1740 3300 3540 5520 7170
2020-02-21 02:00 21.77 4470 9630 (1951) 275 (1963) 2410 361 582 803 1060 1740 3300 3540 5520 7170
2020-02-21 01:00 21.79 4470 9630 (1951) 275 (1963) 2410 361 582 803 1060 1740 3300 3540 5520 7170
2020-02-21 00:00 21.83 4490 9630 (1951) 275 (1963) 2410 361 582 803 1060 1740 3300 3540 5520 7170
2020-02-20 23:00 21.84 4490 9260 (1950) 245 (1945) 2370 321 482 711 789 1730 2840 3670 5880 7940
2020-02-20 22:00 21.85 4490 9260 (1950) 245 (1945) 2370 321 482 711 789 1730 2840 3670 5880 7940
2020-02-20 21:00 21.87 4500 9260 (1950) 245 (1945) 2370 321 482 711 789 1730 2840 3670 5880 7940
2020-02-20 20:00 21.88 4510 9260 (1950) 245 (1945) 2370 321 482 711 789 1730 2840 3670 5880 7940
2020-02-20 19:00 21.91 4520 9260 (1950) 245 (1945) 2370 321 482 711 789 1730 2840 3670 5880 7940
2020-02-20 18:00 21.91 4520 9260 (1950) 245 (1945) 2370 321 482 711 789 1730 2840 3670 5880 7940
2020-02-20 17:00 21.91 4520 9260 (1950) 245 (1945) 2370 321 482 711 789 1730 2840 3670 5880 7940
2020-02-20 16:00 21.91 4520 9260 (1950) 245 (1945) 2370 321 482 711 789 1730 2840 3670 5880 7940
2020-02-20 15:00 21.94 4530 9260 (1950) 245 (1945) 2370 321 482 711 789 1730 2840 3670 5880 7940
2020-02-20 14:00 21.96 4530 9260 (1950) 245 (1945) 2370 321 482 711 789 1730 2840 3670 5880 7940
2020-02-20 13:00 22.00 4550 9260 (1950) 245 (1945) 2370 321 482 711 789 1730 2840 3670 5880 7940
2020-02-20 12:00 21.99 4550 9260 (1950) 245 (1945) 2370 321 482 711 789 1730 2840 3670 5880 7940
2020-02-20 11:00 22.01 4550 9260 (1950) 245 (1945) 2370 321 482 711 789 1730 2840 3670 5880 7940
2020-02-20 10:00 22.04 4570 9260 (1950) 245 (1945) 2370 321 482 711 789 1730 2840 3670 5880 7940
2020-02-20 09:00 22.06 4570 9260 (1950) 245 (1945) 2370 321 482 711 789 1730 2840 3670 5880 7940
2020-02-20 08:00 22.07 4580 9260 (1950) 245 (1945) 2370 321 482 711 789 1730 2840 3670 5880 7940
2020-02-20 07:00 22.07 4580 9260 (1950) 245 (1945) 2370 321 482 711 789 1730 2840 3670 5880 7940
2020-02-20 06:00 22.08 4580 9260 (1950) 245 (1945) 2370 321 482 711 789 1730 2840 3670 5880 7940
2020-02-20 05:00 22.08 4580 9260 (1950) 245 (1945) 2370 321 482 711 789 1730 2840 3670 5880 7940
2020-02-20 04:00 22.11 4600 9260 (1950) 245 (1945) 2370 321 482 711 789 1730 2840 3670 5880 7940
2020-02-20 03:00 22.13 4600 9260 (1950) 245 (1945) 2370 321 482 711 789 1730 2840 3670 5880 7940
2020-02-20 02:00 22.15 4610 9260 (1950) 245 (1945) 2370 321 482 711 789 1730 2840 3670 5880 7940
2020-02-20 01:00 22.15 4610 9260 (1950) 245 (1945) 2370 321 482 711 789 1730 2840 3670 5880 7940
2020-02-20 00:00 22.17 4620 9260 (1950) 245 (1945) 2370 321 482 711 789 1730 2840 3670 5880 7940
2020-02-19 23:00 22.18 4620 9950 (1950) 230 (1945) 2350 313 451 669 782 1630 2890 3040 6110 7670
2020-02-19 22:00 22.19 4630 9950 (1950) 230 (1945) 2350 313 451 669 782 1630 2890 3040 6110 7670
2020-02-19 21:00 22.21 4640 9950 (1950) 230 (1945) 2350 313 451 669 782 1630 2890 3040 6110 7670
2020-02-19 20:00 22.21 4640 9950 (1950) 230 (1945) 2350 313 451 669 782 1630 2890 3040 6110 7670
2020-02-19 19:00 22.22 4640 9950 (1950) 230 (1945) 2350 313 451 669 782 1630 2890 3040 6110 7670
2020-02-19 18:00 22.22 4640 9950 (1950) 230 (1945) 2350 313 451 669 782 1630 2890 3040 6110 7670
2020-02-19 17:00 22.26 4660 9950 (1950) 230 (1945) 2350 313 451 669 782 1630 2890 3040 6110 7670
2020-02-19 16:00 22.23 4650 9950 (1950) 230 (1945) 2350 313 451 669 782 1630 2890 3040 6110 7670
2020-02-19 15:00 22.26 4660 9950 (1950) 230 (1945) 2350 313 451 669 782 1630 2890 3040 6110 7670
2020-02-19 14:00 22.30 4680 9950 (1950) 230 (1945) 2350 313 451 669 782 1630 2890 3040 6110 7670
2020-02-19 13:00 22.30 4680 9950 (1950) 230 (1945) 2350 313 451 669 782 1630 2890 3040 6110 7670
2020-02-19 12:00 22.33 4690 9950 (1950) 230 (1945) 2350 313 451 669 782 1630 2890 3040 6110 7670
2020-02-19 11:00 22.33 4690 9950 (1950) 230 (1945) 2350 313 451 669 782 1630 2890 3040 6110 7670
2020-02-19 10:00 22.36 4700 9950 (1950) 230 (1945) 2350 313 451 669 782 1630 2890 3040 6110 7670
2020-02-19 09:00 22.36 4700 9950 (1950) 230 (1945) 2350 313 451 669 782 1630 2890 3040 6110 7670
2020-02-19 08:00 22.40 4720 9950 (1950) 230 (1945) 2350 313 451 669 782 1630 2890 3040 6110 7670
2020-02-19 07:00 22.41 4720 9950 (1950) 230 (1945) 2350 313 451 669 782 1630 2890 3040 6110 7670
2020-02-19 06:00 22.40 4720 9950 (1950) 230 (1945) 2350 313 451 669 782 1630 2890 3040 6110 7670
2020-02-19 05:00 22.41 4720 9950 (1950) 230 (1945) 2350 313 451 669 782 1630 2890 3040 6110 7670
2020-02-19 04:00 22.42 4730 9950 (1950) 230 (1945) 2350 313 451 669 782 1630 2890 3040 6110 7670
2020-02-19 03:00 22.45 4740 9950 (1950) 230 (1945) 2350 313 451 669 782 1630 2890 3040 6110 7670
2020-02-19 02:00 22.45 4740 9950 (1950) 230 (1945) 2350 313 451 669 782 1630 2890 3040 6110 7670
2020-02-19 01:00 22.45 4740 9950 (1950) 230 (1945) 2350 313 451 669 782 1630 2890 3040 6110 7670
2020-02-19 00:00 22.47 4750 9950 (1950) 230 (1945) 2350 313 451 669 782 1630 2890 3040 6110 7670
2020-02-18 23:00 22.48 4750 10100 (1950) 156 (1983) 2300 292 393 650 770 1620 2660 3180 6040 7650
2020-02-18 22:00 22.49 4760 10100 (1950) 156 (1983) 2300 292 393 650 770 1620 2660 3180 6040 7650
2020-02-18 21:00 22.51 4760 10100 (1950) 156 (1983) 2300 292 393 650 770 1620 2660 3180 6040 7650
2020-02-18 20:00 22.53 4770 10100 (1950) 156 (1983) 2300 292 393 650 770 1620 2660 3180 6040 7650
2020-02-18 19:00 22.53 4770 10100 (1950) 156 (1983) 2300 292 393 650 770 1620 2660 3180 6040 7650
2020-02-18 18:00 22.54 4780 10100 (1950) 156 (1983) 2300 292 393 650 770 1620 2660 3180 6040 7650
2020-02-18 17:00 22.57 4790 10100 (1950) 156 (1983) 2300 292 393 650 770 1620 2660 3180 6040 7650
2020-02-18 16:00 22.57 4790 10100 (1950) 156 (1983) 2300 292 393 650 770 1620 2660 3180 6040 7650
2020-02-18 15:00 22.59 4800 10100 (1950) 156 (1983) 2300 292 393 650 770 1620 2660 3180 6040 7650
2020-02-18 14:00 22.56 4790 10100 (1950) 156 (1983) 2300 292 393 650 770 1620 2660 3180 6040 7650
2020-02-18 13:00 22.59 4800 10100 (1950) 156 (1983) 2300 292 393 650 770 1620 2660 3180 6040 7650
2020-02-18 12:00 22.60 4800 10100 (1950) 156 (1983) 2300 292 393 650 770 1620 2660 3180 6040 7650
2020-02-18 11:00 22.60 4800 10100 (1950) 156 (1983) 2300 292 393 650 770 1620 2660 3180 6040 7650
2020-02-18 10:00 22.63 4820 10100 (1950) 156 (1983) 2300 292 393 650 770 1620 2660 3180 6040 7650
2020-02-18 09:00 22.60 4800 10100 (1950) 156 (1983) 2300 292 393 650 770 1620 2660 3180 6040 7650
2020-02-18 08:00 22.64 4820 10100 (1950) 156 (1983) 2300 292 393 650 770 1620 2660 3180 6040 7650
2020-02-18 07:00 22.66 4830 10100 (1950) 156 (1983) 2300 292 393 650 770 1620 2660 3180 6040 7650
2020-02-18 06:00 22.65 4820 10100 (1950) 156 (1983) 2300 292 393 650 770 1620 2660 3180 6040 7650
2020-02-18 05:00 22.65 4820 10100 (1950) 156 (1983) 2300 292 393 650 770 1620 2660 3180 6040 7650
2020-02-18 04:00 22.69 4840 10100 (1950) 156 (1983) 2300 292 393 650 770 1620 2660 3180 6040 7650
2020-02-18 03:00 22.69 4840 10100 (1950) 156 (1983) 2300 292 393 650 770 1620 2660 3180 6040 7650
2020-02-18 02:00 22.70 4850 10100 (1950) 156 (1983) 2300 292 393 650 770 1620 2660 3180 6040 7650
2020-02-18 01:00 22.71 4850 10100 (1950) 156 (1983) 2300 292 393 650 770 1620 2660 3180 6040 7650
2020-02-18 00:00 22.70 4850 10100 (1950) 156 (1983) 2300 292 393 650 770 1620 2660 3180 6040 7650

A total of 191 rows are displayed for years 1942 through 2019.